Biloxi, MS

5:17 AM CST on February 08, 2016 (GMT -0600)
Taylor Oaks Subdivision | | Change Station
CLOSE
Current Station
Personal Weather Station
Location: Biloxi, MS
Elevation: 92 ft
Nearby Weather Stations
Active Advisory: Wind Advisory

Elev 92 ft 30.44 °N, 88.95 °W | Updated 6 minutes ago

Clear
Clear
42.6 °F
Feels Like 41 °F
N
3.2
Wind Variable Wind from West

Today
High -- | Low -- °F
--% Chance of Precip.
Yesterday
High -- | Low -- °F
Precip. -- in
Pressure 30.06 in
Visibility 10.0 miles
Clouds Clear
Windchill 41 °F
Dew Point 38 °F
Humidity 82%
Rainfall 0.00 in
Snow Depth Not available.
6:42 AM 5:37 PM
Waning Crescent, 0% visible
METAR KBIX 081058Z AUTO 28006KT 10SM CLR 07/03 A3005 RMK AO2 SLP179 T00710031
Pressure 30.06 in
Visibility 10.0 miles
Clouds Clear
Windchill 41 °F
Dew Point 38 °F
Humidity 82%
Rainfall 0.00 in
Snow Depth Not available.
6:42 AM 5:37 PM
Waning Crescent, 0% visible
METAR KBIX 081058Z AUTO 28006KT 10SM CLR 07/03 A3005 RMK AO2 SLP179 T00710031

10-Day Weather Forecast

Almanac

Astronomy

Feb. 08, 2016 Rise Set
Actual Time
Civil Twilight
Nautical Twilight
Astronomical Twilight
Moon
Length of Visible Light
Length of Day
Tomorrow will be .
, % of the Moon is Illuminated

Today's Extremes

State Highs State Lows

Community

WunderPhotos

Upload Photos

1,891,420 photos uploaded!

WunderBlog® & News

Nearby

Air Quality

  Air Quality AQ Index Pollutant
Not available.

Snow Depth

Station Depth Elevation

Earthquake Activity

City Distance Mag. Time & Date
Minimum magnitude displayed is 2.5.

Coastal Water Temperatures

Place Temperature

Stations

Nearby Weather Stations

Station Location Temp. Windchill Dew Point Humidity Wind Precip. Elev Updated Type
                   

Watches & Warnings

Wind Advisory
Issued: 3:32 AM CST Feb. 8, 2016 – National Weather Service

... Wind Advisory in effect from 9 am this morning to 6 PM CST
this evening...

The National Weather Service in New Orleans has issued a Wind
Advisory... which is in effect from 9 am this morning to 6 PM CST
this evening.

* Winds... near 20 mph with frequent gusts of 30 to 40 mph.

* Duration... 6 to 10 hours.

* Impacts... windy conditions will lead to difficult driving
conditions especially along elevated roadways along with
east/west highways and interstates.

Precautionary/preparedness actions...

A Wind Advisory means that winds of 26 to 39 mph are expected.
Winds this strong can make driving difficult... especially for
high profile vehicles. Use extra caution.